Авиационная погода в Жезказгане

Регион: 
Погода METAR: 
UAKD 221200Z 11002MPS 9999 BKN023 M07/M11 Q1022 NOSIG RMK QFE733/0977
Время наблюдения
2022-01-22T12:00:00Z
Температура C
-7.0
Точка росы
-11.0
Направление ветра
110
Скорость ветра (узлы)
4
Метео видимость
6.21
Облачность
BKN
Нижняя граница облачности (футы)
2300
Явления погоды
Условия полета
MVFR
Аэропорт подробнее: 
BKN – значительная (рассеянная, разорванная) облачность;